Time;durP1;ratioP1;P1;durP2;ratioP2;P2;SDS_P1;SDS_P2;PMS_P1;PMS_P2;Temp;Humidity;BMP_temperature;BMP_pressure;BME280_temperature;BME280_humidity;BME280_pressure;Samples;Min_cycle;Max_cycle;Signal;HPM_P1;HPM_P2
2022/07/24 00:01:25;;;;;;;6.90;4.97;;;;;;;;;;5031139;28;20028;-67
2022/07/24 00:03:50;;;;;;;8.67;4.93;;;;;;;;;;5030782;28;20033;-67
2022/07/24 00:06:16;;;;;;;7.27;5.00;;;;;;;;;;5030974;28;20076;-67
2022/07/24 00:08:41;;;;;;;7.50;5.13;;;;;;;;;;5030915;28;20033;-67
2022/07/24 00:11:06;;;;;;;14.40;5.37;;;;;;;;;;5031163;28;20033;-67
2022/07/24 00:13:31;;;;;;;7.90;5.50;;;;;;;;;;5030440;28;20033;-67
2022/07/24 00:15:57;;;;;;;9.27;5.00;;;;;;;;;;5029029;28;20044;-67
2022/07/24 00:18:22;;;;;;;9.23;4.90;;;;;;;;;;5039675;28;20037;-67
2022/07/24 00:20:47;;;;;;;10.30;5.03;;;;;;;;;;5030691;28;20094;-67
2022/07/24 00:23:12;;;;;;;7.13;4.70;;;;;;;;;;5029914;28;20449;-67
2022/07/24 00:25:38;;;;;;;7.73;4.93;;;;;;;;;;5030965;28;20033;-67
2022/07/24 00:28:03;;;;;;;7.57;5.23;;;;;;;;;;5029946;28;20029;-67
2022/07/24 00:30:28;;;;;;;8.83;4.97;;;;;;;;;;5030355;28;20736;-67
2022/07/24 00:32:53;;;;;;;10.10;5.50;;;;;;;;;;5030242;28;20049;-67
2022/07/24 00:35:19;;;;;;;8.77;5.50;;;;;;;;;;5030717;28;20043;-67
2022/07/24 00:37:46;;;;;;;8.20;5.53;;;;;;;;;;5031308;28;20037;-67
2022/07/24 00:40:11;;;;;;;7.87;5.43;;;;;;;;;;5034570;28;20540;-67
2022/07/24 00:42:36;;;;;;;8.00;5.80;;;;;;;;;;5033682;28;20029;-67
2022/07/24 00:45:02;;;;;;;13.03;6.33;;;;;;;;;;5034275;28;20021;-67
2022/07/24 00:47:27;;;;;;;10.57;6.07;;;;;;;;;;5033852;28;20029;-67
2022/07/24 00:49:52;;;;;;;9.27;5.57;;;;;;;;;;5033860;28;20037;-67
2022/07/24 00:52:18;;;;;;;9.27;5.87;;;;;;;;;;5033591;28;20077;-67
2022/07/24 00:54:44;;;;;;;11.60;6.40;;;;;;;;;;5033899;28;20033;-67
2022/07/24 00:57:09;;;;;;;10.33;6.10;;;;;;;;;;5033475;28;20040;-67
2022/07/24 00:59:34;;;;;;;9.47;6.57;;;;;;;;;;5033359;28;20034;-67
2022/07/24 01:02:00;;;;;;;12.43;6.47;;;;;;;;;;5034400;28;20082;-67
2022/07/24 01:04:25;;;;;;;9.40;6.47;;;;;;;;;;5033630;28;20030;-67
2022/07/24 01:06:50;;;;;;;10.57;6.70;;;;;;;;;;5034486;28;20397;-66
2022/07/24 01:09:16;;;;;;;9.80;6.60;;;;;;;;;;5033074;28;20029;-67
2022/07/24 01:11:42;;;;;;;12.20;6.53;;;;;;;;;;5033829;28;20496;-67
2022/07/24 01:14:08;;;;;;;12.20;6.40;;;;;;;;;;5036847;28;20493;-66
2022/07/24 01:16:34;;;;;;;9.23;6.07;;;;;;;;;;5034133;28;20415;-67
2022/07/24 01:18:59;;;;;;;10.20;6.37;;;;;;;;;;5026012;28;20563;-67
2022/07/24 01:21:25;;;;;;;12.07;6.40;;;;;;;;;;5032739;28;20053;-66
2022/07/24 01:23:50;;;;;;;12.90;6.60;;;;;;;;;;5034511;28;20393;-67
2022/07/24 01:26:16;;;;;;;12.20;6.33;;;;;;;;;;5032146;28;20076;-67
2022/07/24 01:28:41;;;;;;;12.90;6.90;;;;;;;;;;5039543;28;20017;-67
2022/07/24 01:31:06;;;;;;;9.53;6.80;;;;;;;;;;5032967;28;20037;-66
2022/07/24 01:33:32;;;;;;;10.23;6.67;;;;;;;;;;5034665;28;20260;-67
2022/07/24 01:35:57;;;;;;;9.43;6.50;;;;;;;;;;5033754;28;20466;-67
2022/07/24 01:38:22;;;;;;;10.37;6.80;;;;;;;;;;5033265;28;20445;-66
2022/07/24 01:40:48;;;;;;;10.67;7.00;;;;;;;;;;5033690;28;20470;-66
2022/07/24 01:43:13;;;;;;;11.80;7.00;;;;;;;;;;5032405;28;20513;-66
2022/07/24 01:45:38;;;;;;;11.80;7.57;;;;;;;;;;5032887;28;20045;-67
2022/07/24 01:48:04;;;;;;;14.20;7.03;;;;;;;;;;5031813;28;20116;-67
2022/07/24 01:50:29;;;;;;;12.70;7.50;;;;;;;;;;5032389;28;20033;-67
2022/07/24 01:52:55;;;;;;;14.37;7.13;;;;;;;;;;5032235;28;20481;-67
2022/07/24 01:55:20;;;;;;;14.40;6.70;;;;;;;;;;5032924;28;20033;-66
2022/07/24 01:57:46;;;;;;;10.80;6.57;;;;;;;;;;5032331;28;20036;-66
2022/07/24 02:00:12;;;;;;;11.97;7.13;;;;;;;;;;5032787;28;20108;-66
2022/07/24 02:02:38;;;;;;;14.90;7.20;;;;;;;;;;5032115;28;20025;-67
2022/07/24 02:05:04;;;;;;;14.40;7.30;;;;;;;;;;5032386;28;20033;-67
2022/07/24 02:07:29;;;;;;;15.00;6.90;;;;;;;;;;5032658;28;20036;-67
2022/07/24 02:09:54;;;;;;;13.37;7.20;;;;;;;;;;5032199;28;20048;-67
2022/07/24 02:12:19;;;;;;;10.60;7.20;;;;;;;;;;5032953;28;20033;-67
2022/07/24 02:14:45;;;;;;;10.77;7.10;;;;;;;;;;5032243;28;20037;-67
2022/07/24 02:17:10;;;;;;;10.27;7.20;;;;;;;;;;5032895;28;20063;-67
2022/07/24 02:19:35;;;;;;;13.20;7.47;;;;;;;;;;5031659;28;20040;-67
2022/07/24 02:22:00;;;;;;;12.30;7.40;;;;;;;;;;5032514;28;20026;-67
2022/07/24 02:24:25;;;;;;;15.07;7.67;;;;;;;;;;5032669;28;20022;-67
2022/07/24 02:26:51;;;;;;;13.53;7.20;;;;;;;;;;5032293;28;20057;-67
2022/07/24 02:29:16;;;;;;;11.67;6.93;;;;;;;;;;5031627;28;20029;-67
2022/07/24 02:31:41;;;;;;;13.93;7.80;;;;;;;;;;5032006;28;20021;-66
2022/07/24 02:34:06;;;;;;;17.03;7.53;;;;;;;;;;5032202;28;20071;-66
2022/07/24 02:36:32;;;;;;;12.83;7.63;;;;;;;;;;5032491;28;20066;-67
2022/07/24 02:38:57;;;;;;;14.20;7.63;;;;;;;;;;5031531;28;20021;-67
2022/07/24 02:41:22;;;;;;;13.87;7.30;;;;;;;;;;5031879;28;20025;-67
2022/07/24 02:43:47;;;;;;;12.00;7.80;;;;;;;;;;5032170;28;20103;-67
2022/07/24 02:46:13;;;;;;;11.10;7.70;;;;;;;;;;5032985;28;20148;-67
2022/07/24 02:48:38;;;;;;;13.57;8.37;;;;;;;;;;5031329;28;20462;-67
2022/07/24 02:51:03;;;;;;;13.67;7.73;;;;;;;;;;5031573;28;20060;-66
2022/07/24 02:53:29;;;;;;;13.43;7.97;;;;;;;;;;5031971;28;20029;-67
2022/07/24 02:55:54;;;;;;;13.93;8.70;;;;;;;;;;5031799;28;20477;-66
2022/07/24 02:58:19;;;;;;;13.93;8.00;;;;;;;;;;5032500;28;20029;-67
2022/07/24 03:00:44;;;;;;;13.20;8.13;;;;;;;;;;5030459;28;20049;-67
2022/07/24 03:03:10;;;;;;;11.80;8.10;;;;;;;;;;5031602;28;20034;-67
2022/07/24 03:05:35;;;;;;;11.37;8.10;;;;;;;;;;5031404;28;20080;-67
2022/07/24 03:08:00;;;;;;;11.63;7.77;;;;;;;;;;5031664;28;20371;-67
2022/07/24 03:10:25;;;;;;;15.37;7.93;;;;;;;;;;5031858;28;20025;-67
2022/07/24 03:12:51;;;;;;;11.40;8.10;;;;;;;;;;5031732;28;20032;-67
2022/07/24 03:15:16;;;;;;;15.93;8.50;;;;;;;;;;5031034;28;20421;-67
2022/07/24 03:17:52;;;;;;;13.17;8.47;;;;;;;;;;5031464;28;20048;-67
2022/07/24 03:20:17;;;;;;;12.83;8.53;;;;;;;;;;5031059;28;20090;-67
2022/07/24 03:22:43;;;;;;;14.60;8.60;;;;;;;;;;5030322;28;20100;-66
2022/07/24 03:25:08;;;;;;;11.33;8.30;;;;;;;;;;5033862;28;20033;-66
2022/07/24 03:27:33;;;;;;;13.63;9.07;;;;;;;;;;5031426;28;20021;-67
2022/07/24 03:29:59;;;;;;;14.80;8.73;;;;;;;;;;5032837;28;20493;-66
2022/07/24 03:32:24;;;;;;;14.07;9.40;;;;;;;;;;5035153;28;20028;-66
2022/07/24 03:34:49;;;;;;;16.13;9.00;;;;;;;;;;5032525;28;20042;-66
2022/07/24 03:37:14;;;;;;;13.20;9.40;;;;;;;;;;5032152;28;20033;-67
2022/07/24 03:39:40;;;;;;;16.33;10.07;;;;;;;;;;5035682;28;20572;-67
2022/07/24 03:42:05;;;;;;;15.37;10.13;;;;;;;;;;5034677;28;20057;-66
2022/07/24 03:44:31;;;;;;;15.87;9.53;;;;;;;;;;5032728;28;20381;-67
2022/07/24 03:46:56;;;;;;;16.30;9.50;;;;;;;;;;5032921;28;20406;-67
2022/07/24 03:49:21;;;;;;;14.03;9.57;;;;;;;;;;5033749;28;20108;-66
2022/07/24 03:51:46;;;;;;;12.40;9.20;;;;;;;;;;5033367;28;20098;-66
2022/07/24 03:54:12;;;;;;;13.57;9.03;;;;;;;;;;5032845;28;20040;-67
2022/07/24 03:56:37;;;;;;;16.43;8.93;;;;;;;;;;5035658;28;20337;-67
2022/07/24 03:59:02;;;;;;;16.27;8.63;;;;;;;;;;5033347;28;20026;-66
2022/07/24 04:01:27;;;;;;;12.40;8.80;;;;;;;;;;5034136;28;20021;-67
2022/07/24 04:03:53;;;;;;;12.97;8.17;;;;;;;;;;5033109;28;20032;-66
2022/07/24 04:06:18;;;;;;;14.60;8.50;;;;;;;;;;5031697;28;20504;-67
2022/07/24 04:08:44;;;;;;;12.30;8.40;;;;;;;;;;5032918;28;20681;-67
2022/07/24 04:11:10;;;;;;;12.43;8.30;;;;;;;;;;5032951;28;20049;-67
2022/07/24 04:13:35;;;;;;;14.33;8.30;;;;;;;;;;5031641;28;20489;-67
2022/07/24 04:16:00;;;;;;;10.40;7.10;;;;;;;;;;5033902;28;20377;-67
2022/07/24 04:18:26;;;;;;;11.93;7.80;;;;;;;;;;5028858;28;20041;-67
2022/07/24 04:20:52;;;;;;;12.27;7.20;;;;;;;;;;5034172;28;20477;-66
2022/07/24 04:23:17;;;;;;;9.90;7.13;;;;;;;;;;5032568;28;20475;-67
2022/07/24 04:25:42;;;;;;;9.13;6.87;;;;;;;;;;5030092;28;20063;-67
2022/07/24 04:28:08;;;;;;;12.07;6.60;;;;;;;;;;5029066;28;20489;-67
2022/07/24 04:30:33;;;;;;;13.43;6.85;;;;;;;;;;5030723;28;20025;-67
2022/07/24 04:32:58;;;;;;;9.77;5.97;;;;;;;;;;5030955;28;20025;-67
2022/07/24 04:35:24;;;;;;;11.00;5.65;;;;;;;;;;5035558;28;20032;-67
2022/07/24 04:37:50;;;;;;;10.10;5.70;;;;;;;;;;5033487;28;20466;-67
2022/07/24 04:40:15;;;;;;;9.65;5.18;;;;;;;;;;5032084;28;20032;-67
2022/07/24 04:42:40;;;;;;;10.27;5.55;;;;;;;;;;5032722;28;20092;-67
2022/07/24 04:45:08;;;;;;;9.77;5.18;;;;;;;;;;5032742;28;20068;-67
2022/07/24 04:47:33;;;;;;;10.13;5.72;;;;;;;;;;5034873;28;20481;-67
2022/07/24 04:49:58;;;;;;;9.13;5.53;;;;;;;;;;5032848;28;20025;-67
2022/07/24 04:52:23;;;;;;;8.93;5.30;;;;;;;;;;5036604;28;20090;-67
2022/07/24 04:54:49;;;;;;;10.48;5.55;;;;;;;;;;5032757;28;20425;-67
2022/07/24 04:57:14;;;;;;;10.10;5.20;;;;;;;;;;5032478;28;20425;-67
2022/07/24 04:59:39;;;;;;;9.43;5.63;;;;;;;;;;5034193;28;20052;-67
2022/07/24 05:02:04;;;;;;;9.90;5.40;;;;;;;;;;5034560;28;20023;-67
2022/07/24 05:04:30;;;;;;;7.47;5.18;;;;;;;;;;5031620;28;20364;-67
2022/07/24 05:06:55;;;;;;;8.13;5.10;;;;;;;;;;5031529;28;20075;-67
2022/07/24 05:09:20;;;;;;;9.95;5.22;;;;;;;;;;5031092;28;20155;-67
2022/07/24 05:11:45;;;;;;;11.15;5.07;;;;;;;;;;5034958;28;20057;-67
2022/07/24 05:14:11;;;;;;;9.50;4.72;;;;;;;;;;5032206;28;20029;-67
2022/07/24 05:16:36;;;;;;;7.97;4.63;;;;;;;;;;5033122;28;20056;-67
2022/07/24 05:19:01;;;;;;;7.00;4.90;;;;;;;;;;5030038;28;20030;-67
2022/07/24 05:21:26;;;;;;;10.05;4.65;;;;;;;;;;5030337;28;20029;-67
2022/07/24 05:23:52;;;;;;;8.32;4.65;;;;;;;;;;5028713;28;20032;-67
2022/07/24 05:26:17;;;;;;;7.13;4.45;;;;;;;;;;5035150;28;20017;-67
2022/07/24 05:28:42;;;;;;;7.85;4.40;;;;;;;;;;5034920;28;20120;-67
2022/07/24 05:31:08;;;;;;;8.02;4.63;;;;;;;;;;5039225;28;20485;-67
2022/07/24 05:33:33;;;;;;;7.75;4.10;;;;;;;;;;5036923;28;20409;-67
2022/07/24 05:35:58;;;;;;;7.03;4.10;;;;;;;;;;5034673;28;20025;-67
2022/07/24 05:38:24;;;;;;;10.10;4.10;;;;;;;;;;5033255;28;20159;-67
2022/07/24 05:40:49;;;;;;;7.05;4.20;;;;;;;;;;5036650;28;20108;-68
2022/07/24 05:43:16;;;;;;;8.02;4.47;;;;;;;;;;5037342;28;20025;-67
2022/07/24 05:45:41;;;;;;;6.68;3.80;;;;;;;;;;5035375;28;20044;-67
2022/07/24 05:48:06;;;;;;;8.93;4.50;;;;;;;;;;5037012;28;20025;-67
2022/07/24 05:50:32;;;;;;;5.95;3.97;;;;;;;;;;5034409;28;20018;-68
2022/07/24 05:52:57;;;;;;;10.32;5.22;;;;;;;;;;5032914;28;20029;-67
2022/07/24 05:55:22;;;;;;;9.43;4.45;;;;;;;;;;5034836;28;20490;-67
2022/07/24 05:57:47;;;;;;;5.35;3.88;;;;;;;;;;5035976;28;20033;-67
2022/07/24 06:00:18;;;;;;;7.63;4.15;;;;;;;;;;5033975;28;20040;-67
2022/07/24 06:02:45;;;;;;;6.47;4.00;;;;;;;;;;5032530;28;20393;-67
2022/07/24 06:05:10;;;;;;;5.45;3.95;;;;;;;;;;5033307;28;20104;-67
2022/07/24 06:07:36;;;;;;;7.38;3.40;;;;;;;;;;5032992;28;20228;-67
2022/07/24 06:10:01;;;;;;;6.15;3.72;;;;;;;;;;5033718;28;20033;-67
2022/07/24 06:12:26;;;;;;;6.78;3.45;;;;;;;;;;5039797;28;20029;-67
2022/07/24 06:14:51;;;;;;;5.90;3.88;;;;;;;;;;5031112;28;20507;-67
2022/07/24 06:17:16;;;;;;;5.32;3.25;;;;;;;;;;5032870;28;20426;-67
2022/07/24 06:19:42;;;;;;;9.43;3.92;;;;;;;;;;5032536;28;20052;-67
2022/07/24 06:22:07;;;;;;;7.35;3.30;;;;;;;;;;5032615;28;20076;-68
2022/07/24 06:24:32;;;;;;;8.35;3.50;;;;;;;;;;5032453;28;20447;-67
2022/07/24 06:26:57;;;;;;;6.72;3.78;;;;;;;;;;5032322;28;20393;-67
2022/07/24 06:29:23;;;;;;;6.90;3.38;;;;;;;;;;5032035;28;20083;-67
2022/07/24 06:31:48;;;;;;;5.10;3.10;;;;;;;;;;5032419;28;20049;-67
2022/07/24 06:34:13;;;;;;;6.38;3.03;;;;;;;;;;5032047;28;20029;-66
2022/07/24 06:36:38;;;;;;;4.93;2.83;;;;;;;;;;5031898;28;20112;-65
2022/07/24 06:39:04;;;;;;;6.57;2.53;;;;;;;;;;5032196;28;20029;-66
2022/07/24 06:41:29;;;;;;;5.63;2.60;;;;;;;;;;5032505;28;20434;-65
2022/07/24 06:43:54;;;;;;;5.20;2.70;;;;;;;;;;5032219;28;20358;-66
2022/07/24 06:46:19;;;;;;;4.10;2.35;;;;;;;;;;5031864;28;20662;-65
2022/07/24 06:48:45;;;;;;;3.70;2.15;;;;;;;;;;5031175;28;20025;-66
2022/07/24 06:51:10;;;;;;;4.65;2.10;;;;;;;;;;5032262;28;20090;-65
2022/07/24 06:53:37;;;;;;;4.70;2.00;;;;;;;;;;5030742;28;20045;-66
2022/07/24 06:56:02;;;;;;;7.13;2.40;;;;;;;;;;5039962;28;20027;-65
2022/07/24 06:58:27;;;;;;;7.15;2.50;;;;;;;;;;5030940;28;20124;-65
2022/07/24 07:00:52;;;;;;;7.25;3.00;;;;;;;;;;5034491;28;20017;-66
2022/07/24 07:03:18;;;;;;;5.45;2.45;;;;;;;;;;5035483;28;20037;-66
2022/07/24 07:05:43;;;;;;;6.00;3.05;;;;;;;;;;5027719;28;20097;-65
2022/07/24 07:08:08;;;;;;;3.40;2.10;;;;;;;;;;5032718;28;20025;-65
2022/07/24 07:10:34;;;;;;;5.13;2.33;;;;;;;;;;5013182;28;20026;-65
2022/07/24 07:12:59;;;;;;;5.47;2.60;;;;;;;;;;5020820;28;20017;-66
2022/07/24 07:15:24;;;;;;;11.40;2.97;;;;;;;;;;5030042;28;20079;-66
2022/07/24 07:17:50;;;;;;;9.82;2.50;;;;;;;;;;5031227;28;20032;-65
2022/07/24 07:20:15;;;;;;;4.78;2.47;;;;;;;;;;5031675;28;20029;-65
2022/07/24 07:22:41;;;;;;;5.68;2.20;;;;;;;;;;5031136;28;20018;-65
2022/07/24 07:25:07;;;;;;;6.20;2.17;;;;;;;;;;5031689;28;20017;-65
2022/07/24 07:27:32;;;;;;;4.22;2.08;;;;;;;;;;5031134;28;20383;-65
2022/07/24 07:29:57;;;;;;;4.93;1.80;;;;;;;;;;5031300;28;20398;-65
2022/07/24 07:32:23;;;;;;;5.90;2.20;;;;;;;;;;5031074;28;20029;-65
2022/07/24 07:34:48;;;;;;;4.97;1.95;;;;;;;;;;5031016;28;20033;-65
2022/07/24 07:37:13;;;;;;;5.10;2.10;;;;;;;;;;5031427;28;20029;-65
2022/07/24 07:39:38;;;;;;;9.63;4.65;;;;;;;;;;5030820;28;20390;-65
2022/07/24 07:42:04;;;;;;;5.85;2.55;;;;;;;;;;5031207;28;20021;-66
2022/07/24 07:44:29;;;;;;;5.57;2.20;;;;;;;;;;5027721;28;20495;-65
2022/07/24 07:46:54;;;;;;;6.80;2.00;;;;;;;;;;5030679;28;20022;-65
2022/07/24 07:49:19;;;;;;;7.20;2.10;;;;;;;;;;5030897;28;20026;-65
2022/07/24 07:51:47;;;;;;;7.68;2.22;;;;;;;;;;5031059;28;20178;-65
2022/07/24 07:54:12;;;;;;;6.60;2.40;;;;;;;;;;5030432;28;20059;-66
2022/07/24 07:56:38;;;;;;;4.68;2.60;;;;;;;;;;5031336;28;20048;-66
2022/07/24 07:59:03;;;;;;;4.40;2.13;;;;;;;;;;5030504;28;20433;-65
2022/07/24 08:01:28;;;;;;;7.03;2.20;;;;;;;;;;5030883;28;20017;-66
2022/07/24 08:03:53;;;;;;;6.43;2.80;;;;;;;;;;5030759;28;20053;-66
2022/07/24 08:06:19;;;;;;;4.45;2.40;;;;;;;;;;5030714;28;20032;-66
2022/07/24 08:08:44;;;;;;;6.68;4.40;;;;;;;;;;5030730;28;20025;-65
2022/07/24 08:11:09;;;;;;;5.50;2.47;;;;;;;;;;5031081;28;20013;-66
2022/07/24 08:13:34;;;;;;;5.32;2.05;;;;;;;;;;5030446;28;20025;-66
2022/07/24 08:16:00;;;;;;;4.80;2.40;;;;;;;;;;5030653;28;20124;-66
2022/07/24 08:18:25;;;;;;;4.40;2.25;;;;;;;;;;5029686;28;20025;-65
2022/07/24 08:20:51;;;;;;;4.93;2.50;;;;;;;;;;5030910;28;20025;-66
2022/07/24 08:23:16;;;;;;;6.28;2.70;;;;;;;;;;5027753;28;20060;-65
2022/07/24 08:25:41;;;;;;;4.07;2.25;;;;;;;;;;5034170;28;20111;-65
2022/07/24 08:28:07;;;;;;;8.38;2.70;;;;;;;;;;5027600;28;20029;-66
2022/07/24 08:30:32;;;;;;;6.80;2.67;;;;;;;;;;5028769;28;20020;-65
2022/07/24 08:33:00;;;;;;;4.80;2.40;;;;;;;;;;5035170;28;20029;-66
2022/07/24 08:35:25;;;;;;;5.97;2.53;;;;;;;;;;5029135;28;20029;-65
2022/07/24 08:37:51;;;;;;;7.60;2.63;;;;;;;;;;5029798;28;20120;-65
2022/07/24 08:40:16;;;;;;;5.25;2.65;;;;;;;;;;5029987;28;20052;-66
2022/07/24 08:42:42;;;;;;;4.60;2.30;;;;;;;;;;5030249;28;20173;-66
2022/07/24 08:45:07;;;;;;;4.32;2.30;;;;;;;;;;5030047;28;20029;-65
2022/07/24 08:47:33;;;;;;;4.15;2.25;;;;;;;;;;5030144;28;20016;-65
2022/07/24 08:49:59;;;;;;;5.03;2.72;;;;;;;;;;5029690;28;20029;-65
2022/07/24 08:52:24;;;;;;;4.63;2.60;;;;;;;;;;5029682;28;20536;-65
2022/07/24 08:54:50;;;;;;;5.90;2.50;;;;;;;;;;5030198;28;20466;-65
2022/07/24 08:57:15;;;;;;;4.85;2.70;;;;;;;;;;5030257;28;20497;-65
2022/07/24 08:59:41;;;;;;;5.82;2.45;;;;;;;;;;5033062;28;20626;-66
2022/07/24 09:02:06;;;;;;;6.05;2.72;;;;;;;;;;5034406;28;20025;-65
2022/07/24 09:04:31;;;;;;;5.82;2.50;;;;;;;;;;5033437;28;20029;-65
2022/07/24 09:06:58;;;;;;;4.88;2.55;;;;;;;;;;5032447;28;20037;-65
2022/07/24 09:09:23;;;;;;;5.57;2.47;;;;;;;;;;5039455;28;20040;-65
2022/07/24 09:11:49;;;;;;;5.38;2.50;;;;;;;;;;5034298;28;20100;-66
2022/07/24 09:14:29;;;;;;;5.13;2.57;;;;;;;;;;5033614;28;20083;-66
2022/07/24 09:17:01;;;;;;;6.22;2.67;;;;;;;;;;5013934;28;20356;-66
2022/07/24 09:19:26;;;;;;;5.88;2.92;;;;;;;;;;5029367;28;20034;-65
2022/07/24 09:21:53;;;;;;;7.10;2.90;;;;;;;;;;5037053;28;20106;-65
2022/07/24 09:24:21;;;;;;;6.53;2.83;;;;;;;;;;5033614;28;20470;-65
2022/07/24 09:26:48;;;;;;;4.03;2.35;;;;;;;;;;5033678;28;20057;-65
2022/07/24 09:29:13;;;;;;;6.22;2.80;;;;;;;;;;5033572;28;20044;-66
2022/07/24 09:31:54;;;;;;;5.25;2.30;;;;;;;;;;5034676;28;20366;-66
2022/07/24 09:34:19;;;;;;;5.85;2.72;;;;;;;;;;5032652;28;20022;-66
2022/07/24 09:36:54;;;;;;;5.75;2.50;;;;;;;;;;5033462;28;20029;-66
2022/07/24 09:39:19;;;;;;;9.60;2.65;;;;;;;;;;5032743;28;20359;-66
2022/07/24 09:41:52;;;;;;;9.82;2.65;;;;;;;;;;5033329;28;20021;-66
2022/07/24 09:44:17;;;;;;;8.73;3.00;;;;;;;;;;5031544;28;20505;-66
2022/07/24 09:46:46;;;;;;;6.75;3.00;;;;;;;;;;5033412;28;20021;-66
2022/07/24 09:49:18;;;;;;;6.90;3.42;;;;;;;;;;5030420;28;20025;-66
2022/07/24 09:51:43;;;;;;;5.35;2.80;;;;;;;;;;5033461;28;20085;-66
2022/07/24 09:54:08;;;;;;;4.30;2.75;;;;;;;;;;5032243;28;20194;-65
2022/07/24 09:56:35;;;;;;;6.60;2.90;;;;;;;;;;5033081;28;20021;-66
2022/07/24 09:59:02;;;;;;;6.47;3.00;;;;;;;;;;5032118;28;20026;-66
2022/07/24 10:01:28;;;;;;;6.07;3.00;;;;;;;;;;5033287;28;20466;-66
2022/07/24 10:03:54;;;;;;;4.65;2.80;;;;;;;;;;5031715;28;20027;-66
2022/07/24 10:06:21;;;;;;;6.13;2.75;;;;;;;;;;5032786;28;20021;-66
2022/07/24 10:08:47;;;;;;;5.75;3.05;;;;;;;;;;5032956;28;20029;-66
2022/07/24 10:11:13;;;;;;;7.38;3.08;;;;;;;;;;5032107;28;20021;-66
2022/07/24 10:13:38;;;;;;;5.03;3.10;;;;;;;;;;5032852;28;20104;-66
2022/07/24 10:16:23;;;;;;;6.07;3.00;;;;;;;;;;5031095;28;20029;-66
2022/07/24 10:18:56;;;;;;;5.22;3.20;;;;;;;;;;5032044;28;20065;-66
2022/07/24 10:21:22;;;;;;;5.13;2.95;;;;;;;;;;5032834;28;20075;-65
2022/07/24 10:23:51;;;;;;;6.38;3.08;;;;;;;;;;5032203;28;20025;-66
2022/07/24 10:26:25;;;;;;;5.32;3.17;;;;;;;;;;5032586;28;20014;-66
2022/07/24 10:28:57;;;;;;;6.50;3.28;;;;;;;;;;5032528;28;20099;-65
2022/07/24 10:31:22;;;;;;;5.20;2.85;;;;;;;;;;5032799;28;20382;-66
2022/07/24 10:33:50;;;;;;;6.18;3.30;;;;;;;;;;5032140;28;20034;-66
2022/07/24 10:36:27;;;;;;;6.10;3.03;;;;;;;;;;5032647;28;20370;-66
2022/07/24 10:39:10;;;;;;;6.22;3.10;;;;;;;;;;5031665;28;20131;-66
2022/07/24 10:41:36;;;;;;;5.38;2.83;;;;;;;;;;5032560;28;20017;-65
2022/07/24 10:44:17;;;;;;;5.85;3.17;;;;;;;;;;5032192;28;20028;-66
2022/07/24 10:46:59;;;;;;;6.75;3.00;;;;;;;;;;5032052;28;20013;-66
2022/07/24 10:49:43;;;;;;;5.82;3.10;;;;;;;;;;5031958;28;20470;-66
2022/07/24 10:52:27;;;;;;;6.20;3.40;;;;;;;;;;5031821;28;20049;-66
2022/07/24 10:55:11;;;;;;;6.38;3.47;;;;;;;;;;5031863;28;20155;-66
2022/07/24 10:57:47;;;;;;;6.78;3.47;;;;;;;;;;5031073;28;20018;-66
2022/07/24 11:00:35;;;;;;;6.47;3.28;;;;;;;;;;5031823;28;20018;-66
2022/07/24 11:03:02;;;;;;;6.03;3.08;;;;;;;;;;5027770;28;20022;-66
2022/07/24 11:05:34;;;;;;;6.00;3.25;;;;;;;;;;5032072;28;20022;-66
2022/07/24 11:08:11;;;;;;;4.95;3.10;;;;;;;;;;5031604;28;20557;-66
2022/07/24 11:10:50;;;;;;;5.40;3.40;;;;;;;;;;5031662;28;20052;-66
2022/07/24 11:13:33;;;;;;;5.38;3.40;;;;;;;;;;5031193;28;20060;-66
2022/07/24 11:16:11;;;;;;;5.82;3.30;;;;;;;;;;5030169;28;20076;-65
2022/07/24 11:18:36;;;;;;;7.82;3.55;;;;;;;;;;5031331;28;20030;-65
2022/07/24 11:21:02;;;;;;;6.30;3.50;;;;;;;;;;5031037;28;20080;-66
2022/07/24 11:23:27;;;;;;;6.25;3.40;;;;;;;;;;5030623;28;20017;-66
2022/07/24 11:26:12;;;;;;;6.88;3.47;;;;;;;;;;5031066;28;20021;-66
2022/07/24 11:28:38;;;;;;;6.30;3.65;;;;;;;;;;5031143;28;20478;-66
2022/07/24 11:31:03;;;;;;;11.68;3.60;;;;;;;;;;5031710;28;20025;-65
2022/07/24 11:33:29;;;;;;;7.03;3.65;;;;;;;;;;5030080;28;20453;-66
2022/07/24 11:35:54;;;;;;;5.38;3.63;;;;;;;;;;5031732;28;20060;-65
2022/07/24 11:38:27;;;;;;;5.60;3.42;;;;;;;;;;5031010;28;20063;-66
2022/07/24 11:41:03;;;;;;;10.73;3.75;;;;;;;;;;5030757;28;20109;-65
2022/07/24 11:43:29;;;;;;;6.18;3.70;;;;;;;;;;5032261;28;20398;-65
2022/07/24 11:45:54;;;;;;;6.07;3.80;;;;;;;;;;5031381;28;20072;-65
2022/07/24 11:48:19;;;;;;;6.63;3.70;;;;;;;;;;5031291;28;20028;-66
2022/07/24 11:50:45;;;;;;;5.18;3.38;;;;;;;;;;5031598;28;20155;-66
2022/07/24 11:53:10;;;;;;;5.30;3.10;;;;;;;;;;5030807;28;20022;-66
2022/07/24 11:55:36;;;;;;;6.90;3.40;;;;;;;;;;5031237;28;20018;-66
2022/07/24 11:58:02;;;;;;;5.53;3.10;;;;;;;;;;5031290;28;20083;-65
2022/07/24 12:00:27;;;;;;;8.07;3.17;;;;;;;;;;5032868;28;20021;-66
2022/07/24 12:02:58;;;;;;;5.30;3.05;;;;;;;;;;5031093;28;20374;-65
2022/07/24 12:05:25;;;;;;;9.60;3.60;;;;;;;;;;5031351;28;20462;-65
2022/07/24 12:07:50;;;;;;;10.95;4.30;;;;;;;;;;5031413;28;20025;-65
2022/07/24 12:10:18;;;;;;;9.93;4.75;;;;;;;;;;5031199;28;20487;-65
2022/07/24 12:12:44;;;;;;;6.10;3.55;;;;;;;;;;5031139;28;20440;-65
2022/07/24 12:15:11;;;;;;;8.15;3.40;;;;;;;;;;5031088;28;20030;-65
2022/07/24 12:17:59;;;;;;;7.28;3.22;;;;;;;;;;5031042;28;20025;-65
2022/07/24 12:20:32;;;;;;;6.53;3.40;;;;;;;;;;5030301;28;20037;-65
2022/07/24 12:22:58;;;;;;;7.03;3.40;;;;;;;;;;5032922;28;20025;-66
2022/07/24 12:25:24;;;;;;;5.93;3.60;;;;;;;;;;5012431;28;20029;-66
2022/07/24 12:27:52;;;;;;;6.30;3.60;;;;;;;;;;5010941;28;20041;-66
2022/07/24 12:30:20;;;;;;;6.25;3.83;;;;;;;;;;5012566;28;20493;-66
2022/07/24 12:32:54;;;;;;;5.95;3.33;;;;;;;;;;5011476;28;20068;-66
2022/07/24 12:35:20;;;;;;;6.15;3.67;;;;;;;;;;5016260;28;20021;-65
2022/07/24 12:37:45;;;;;;;6.85;3.70;;;;;;;;;;5046258;28;20424;-66
2022/07/24 12:40:21;;;;;;;7.60;3.58;;;;;;;;;;5029368;28;20704;-66
2022/07/24 12:42:46;;;;;;;7.93;3.85;;;;;;;;;;5017317;28;20025;-66
2022/07/24 12:45:11;;;;;;;5.65;3.40;;;;;;;;;;5015733;28;20469;-66
2022/07/24 12:47:55;;;;;;;6.65;3.50;;;;;;;;;;5034000;28;20017;-66
2022/07/24 12:50:20;;;;;;;5.90;3.65;;;;;;;;;;5015014;28;20421;-66
2022/07/24 12:52:49;;;;;;;6.13;3.72;;;;;;;;;;5023200;28;20064;-66
2022/07/24 12:55:18;;;;;;;6.40;3.83;;;;;;;;;;5034371;28;20032;-66
2022/07/24 12:57:43;;;;;;;8.95;3.58;;;;;;;;;;5034152;28;20065;-66
2022/07/24 13:00:09;;;;;;;6.90;3.70;;;;;;;;;;5034521;28;20072;-66
2022/07/24 13:02:34;;;;;;;7.35;3.60;;;;;;;;;;5034452;28;20481;-66
2022/07/24 13:05:00;;;;;;;8.88;3.78;;;;;;;;;;5033471;28;20025;-67
2022/07/24 13:07:25;;;;;;;5.55;3.45;;;;;;;;;;5034396;28;20369;-66
2022/07/24 13:09:51;;;;;;;5.55;3.30;;;;;;;;;;5034082;28;20462;-66
2022/07/24 13:12:16;;;;;;;6.00;3.45;;;;;;;;;;5022990;28;20025;-66
2022/07/24 13:14:42;;;;;;;5.97;3.10;;;;;;;;;;5025231;28;20490;-66
2022/07/24 13:17:09;;;;;;;5.82;3.50;;;;;;;;;;5026145;28;21142;-66
2022/07/24 13:19:35;;;;;;;6.22;3.55;;;;;;;;;;5031873;28;20030;-66
2022/07/24 13:22:00;;;;;;;7.65;3.50;;;;;;;;;;5034330;28;20022;-66
2022/07/24 13:24:25;;;;;;;5.65;3.30;;;;;;;;;;5033555;28;20020;-66
2022/07/24 13:26:51;;;;;;;7.50;3.85;;;;;;;;;;5022536;28;20017;-66
2022/07/24 13:29:16;;;;;;;5.43;3.20;;;;;;;;;;5033385;28;20017;-66
2022/07/24 13:31:41;;;;;;;6.13;3.30;;;;;;;;;;5033945;28;20034;-67
2022/07/24 13:34:08;;;;;;;6.72;3.28;;;;;;;;;;5033759;28;20017;-66
2022/07/24 13:36:33;;;;;;;5.10;3.30;;;;;;;;;;5033994;28;20160;-67
2022/07/24 13:38:59;;;;;;;7.40;3.67;;;;;;;;;;5033278;28;20452;-66
2022/07/24 13:41:24;;;;;;;5.45;3.30;;;;;;;;;;5019002;28;20026;-66
2022/07/24 13:43:50;;;;;;;5.90;3.13;;;;;;;;;;5015165;28;21866;-66
2022/07/24 13:46:15;;;;;;;5.15;3.10;;;;;;;;;;5021622;28;20025;-66
2022/07/24 13:48:41;;;;;;;6.85;3.38;;;;;;;;;;5032162;28;20164;-66
2022/07/24 13:51:06;;;;;;;8.68;3.38;;;;;;;;;;5033694;28;20032;-67
2022/07/24 13:53:31;;;;;;;6.20;3.47;;;;;;;;;;5027810;28;20040;-66
2022/07/24 13:55:56;;;;;;;5.32;3.47;;;;;;;;;;5016969;28;20033;-66
2022/07/24 13:58:22;;;;;;;6.45;3.40;;;;;;;;;;5031810;28;20020;-66
2022/07/24 14:00:47;;;;;;;4.45;3.10;;;;;;;;;;5022646;28;20028;-67
2022/07/24 14:03:12;;;;;;;6.35;3.08;;;;;;;;;;5018014;28;20021;-67
2022/07/24 14:05:38;;;;;;;6.20;3.13;;;;;;;;;;5025647;28;20028;-66
2022/07/24 14:08:03;;;;;;;6.68;3.50;;;;;;;;;;5017242;28;20021;-67
2022/07/24 14:10:28;;;;;;;7.03;3.33;;;;;;;;;;5014711;28;20037;-66
2022/07/24 14:12:54;;;;;;;6.57;2.90;;;;;;;;;;5014377;28;20045;-66
2022/07/24 14:15:19;;;;;;;6.18;3.20;;;;;;;;;;5016647;28;20550;-66
2022/07/24 14:17:44;;;;;;;5.95;3.40;;;;;;;;;;5013508;28;20121;-66
2022/07/24 14:20:10;;;;;;;7.65;3.33;;;;;;;;;;5014264;28;20088;-66
2022/07/24 14:22:36;;;;;;;5.10;3.22;;;;;;;;;;5015005;28;20056;-66
2022/07/24 14:25:02;;;;;;;4.93;3.30;;;;;;;;;;5020081;28;22001;-66
2022/07/24 14:27:28;;;;;;;4.93;3.40;;;;;;;;;;5015804;28;20026;-66
2022/07/24 14:29:53;;;;;;;4.75;3.10;;;;;;;;;;5020149;28;20072;-66
2022/07/24 14:32:18;;;;;;;6.70;3.10;;;;;;;;;;5019310;28;20039;-66
2022/07/24 14:34:43;;;;;;;4.57;2.88;;;;;;;;;;5013176;28;20037;-66